createdAt,value
2019-06-27T00:00:48.548Z,84.20
2019-06-27T00:03:17.861Z,84.10
2019-06-27T00:05:47.144Z,84.20
2019-06-27T00:08:16.446Z,84.00
2019-06-27T00:10:46.066Z,84.60
2019-06-27T00:13:15.361Z,84.70
2019-06-27T00:15:44.972Z,84.90
2019-06-27T00:18:14.277Z,84.90
2019-06-27T00:20:43.976Z,85.10
2019-06-27T00:23:13.276Z,85.80
2019-06-27T00:25:42.583Z,86.20
2019-06-27T00:28:12.124Z,86.60
2019-06-27T00:30:41.412Z,87.10
2019-06-27T00:33:10.717Z,87.80
2019-06-27T00:35:39.994Z,88.40
2019-06-27T00:38:09.520Z,88.30
2019-06-27T00:40:38.815Z,88.60
2019-06-27T00:43:08.119Z,88.70
2019-06-27T00:45:38.468Z,88.80
2019-06-27T00:48:08.043Z,88.90
2019-06-27T00:50:37.325Z,89.10
2019-06-27T00:53:06.627Z,89.40
2019-06-27T00:55:35.916Z,89.90
2019-06-27T00:58:05.284Z,90.10
2019-06-27T01:00:34.608Z,90.10
2019-06-27T01:03:03.955Z,90.20
2019-06-27T01:05:33.232Z,90.30
2019-06-27T01:08:02.529Z,90.10
2019-06-27T01:10:33.684Z,89.80
2019-06-27T01:13:02.997Z,89.50
2019-06-27T01:15:32.416Z,89.60
2019-06-27T01:18:01.712Z,89.80
2019-06-27T01:20:31.004Z,89.50
2019-06-27T01:23:00.300Z,88.70
2019-06-27T01:25:29.585Z,89.10
2019-06-27T01:27:58.880Z,89.30
2019-06-27T01:30:28.507Z,89.30
2019-06-27T01:32:57.837Z,89.40
2019-06-27T01:35:27.625Z,89.60
2019-06-27T01:37:56.917Z,89.70
2019-06-27T01:40:26.532Z,90.00
2019-06-27T01:42:56.133Z,89.90
2019-06-27T01:45:33.117Z,89.90
2019-06-27T01:48:03.852Z,90.10
2019-06-27T01:50:33.136Z,90.40
2019-06-27T01:53:02.449Z,90.50
2019-06-27T01:55:32.056Z,90.40
2019-06-27T01:58:01.595Z,90.20
2019-06-27T02:00:31.772Z,90.30
2019-06-27T02:03:01.207Z,90.50
2019-06-27T02:05:30.903Z,90.70
2019-06-27T02:08:00.265Z,90.70
2019-06-27T02:10:29.814Z,90.90
2019-06-27T02:12:59.116Z,90.90
2019-06-27T02:15:28.406Z,91.30
2019-06-27T02:17:57.699Z,91.60
2019-06-27T02:20:28.241Z,92.10
2019-06-27T02:22:57.848Z,92.30
2019-06-27T02:25:27.216Z,92.20
2019-06-27T02:28:03.866Z,92.00
2019-06-27T02:30:34.657Z,92.00
2019-06-27T02:33:03.952Z,92.10
2019-06-27T02:35:33.364Z,92.00
2019-06-27T02:38:04.061Z,92.00
2019-06-27T02:40:33.533Z,92.10
2019-06-27T02:43:02.825Z,92.30
2019-06-27T02:45:32.525Z,92.50
2019-06-27T02:48:01.882Z,92.60
2019-06-27T02:50:31.266Z,92.50
2019-06-27T02:53:00.780Z,92.30
2019-06-27T02:55:30.344Z,92.40
2019-06-27T02:57:59.940Z,92.50
2019-06-27T03:00:29.558Z,92.30
2019-06-27T03:02:59.066Z,92.30
2019-06-27T03:05:28.592Z,92.70
2019-06-27T03:07:57.891Z,92.80
2019-06-27T03:10:27.189Z,92.90
2019-06-27T03:12:56.728Z,92.90
2019-06-27T03:15:26.039Z,93.30
2019-06-27T03:17:55.686Z,93.60
2019-06-27T03:20:25.061Z,93.80
2019-06-27T03:22:54.353Z,94.20
2019-06-27T03:25:23.649Z,94.30
2019-06-27T03:27:52.945Z,94.50
2019-06-27T03:30:22.258Z,94.80
2019-06-27T03:32:51.543Z,94.80
2019-06-27T03:35:20.838Z,94.70
2019-06-27T03:37:50.143Z,94.70
2019-06-27T03:40:19.680Z,94.40
2019-06-27T03:42:49.046Z,94.70
2019-06-27T03:45:18.332Z,94.80
2019-06-27T03:47:47.639Z,95.00
2019-06-27T03:50:16.950Z,95.30
2019-06-27T03:52:46.339Z,95.40
2019-06-27T03:55:15.642Z,95.80
2019-06-27T03:57:45.661Z,96.00
2019-06-27T04:00:20.981Z,96.00
2019-06-27T04:02:50.287Z,95.90
2019-06-27T04:05:19.877Z,96.30
2019-06-27T04:07:49.486Z,96.30
2019-06-27T04:10:18.876Z,96.40
2019-06-27T04:12:48.213Z,96.60
2019-06-27T04:15:17.805Z,96.40
2019-06-27T04:17:47.418Z,96.70
2019-06-27T04:20:17.012Z,96.70
2019-06-27T04:22:46.625Z,96.10
2019-06-27T04:25:15.925Z,95.80
2019-06-27T04:27:45.310Z,95.70
2019-06-27T04:30:15.889Z,96.00
2019-06-27T04:32:45.460Z,95.80
2019-06-27T04:35:15.069Z,95.50
2019-06-27T04:37:44.377Z,95.70
2019-06-27T04:40:13.745Z,95.80
2019-06-27T04:42:43.048Z,95.90
2019-06-27T04:45:12.415Z,96.50
2019-06-27T04:47:41.984Z,96.80
2019-06-27T04:50:11.601Z,96.80
2019-06-27T04:52:41.216Z,96.80
2019-06-27T04:55:10.519Z,96.80
2019-06-27T04:57:40.112Z,96.70
2019-06-27T05:00:09.926Z,96.90
2019-06-27T05:02:39.233Z,96.70
2019-06-27T05:05:08.529Z,96.20
2019-06-27T05:07:37.964Z,96.00
2019-06-27T05:10:07.538Z,95.70
2019-06-27T05:12:36.869Z,95.30
2019-06-27T05:15:08.112Z,95.60
2019-06-27T05:17:37.673Z,95.20
2019-06-27T05:20:06.960Z,95.10
2019-06-27T05:22:36.436Z,95.20
2019-06-27T05:25:05.720Z,95.40
2019-06-27T05:27:35.039Z,95.30
2019-06-27T05:30:10.087Z,94.60
2019-06-27T05:32:36.357Z,94.70
2019-06-27T05:35:06.125Z,94.30
2019-06-27T05:37:35.699Z,93.70
2019-06-27T05:40:08.561Z,93.40
2019-06-27T05:42:38.187Z,92.60
2019-06-27T05:45:08.112Z,91.80
2019-06-27T05:47:38.616Z,90.40
2019-06-27T05:50:08.751Z,89.30
2019-06-27T05:52:38.053Z,87.60
2019-06-27T05:55:07.990Z,87.30
2019-06-27T05:57:37.566Z,86.20
2019-06-27T06:00:26.166Z,85.40
2019-06-27T06:02:39.725Z,85.10
2019-06-27T06:05:09.070Z,84.70
2019-06-27T06:07:38.371Z,84.50
2019-06-27T06:10:07.995Z,83.70
2019-06-27T06:12:37.516Z,83.30
2019-06-27T06:15:08.247Z,83.50
2019-06-27T06:17:37.771Z,82.20
2019-06-27T06:20:07.695Z,82.10
2019-06-27T06:22:36.978Z,81.30
2019-06-27T06:25:06.930Z,81.40
2019-06-27T06:27:36.299Z,81.00
2019-06-27T06:30:07.473Z,81.10
2019-06-27T06:32:36.827Z,80.80
2019-06-27T06:35:07.291Z,80.50
2019-06-27T06:37:36.899Z,80.50
2019-06-27T06:40:07.513Z,80.30
2019-06-27T06:42:37.036Z,80.10
2019-06-27T06:45:07.288Z,80.60
2019-06-27T06:47:36.581Z,80.40
2019-06-27T06:50:06.417Z,79.20
2019-06-27T06:52:35.776Z,78.70
2019-06-27T06:55:06.768Z,77.60
2019-06-27T06:57:36.153Z,77.90
2019-06-27T07:00:08.148Z,77.10
2019-06-27T07:02:38.082Z,76.50
2019-06-27T07:05:07.883Z,76.50
2019-06-27T07:07:37.202Z,76.50
2019-06-27T07:10:08.399Z,75.80
2019-06-27T07:12:37.699Z,74.30
2019-06-27T07:15:08.951Z,73.70
2019-06-27T07:17:38.275Z,73.90
2019-06-27T07:20:08.763Z,73.90
2019-06-27T07:22:38.052Z,74.50
2019-06-27T07:25:07.893Z,74.20
2019-06-27T07:27:37.731Z,73.20
2019-06-27T07:30:07.854Z,74.10
2019-06-27T07:32:37.203Z,72.30
2019-06-27T07:35:07.252Z,71.40
2019-06-27T07:37:37.483Z,71.70
2019-06-27T07:40:11.292Z,71.00
2019-06-27T07:42:40.553Z,71.20
2019-06-27T07:45:10.504Z,71.80
2019-06-27T07:47:40.091Z,72.30
2019-06-27T07:50:10.426Z,71.50
2019-06-27T07:52:40.667Z,70.20
2019-06-27T07:55:09.950Z,71.10
2019-06-27T07:57:39.552Z,71.00
2019-06-27T08:00:10.653Z,69.90
2019-06-27T08:02:40.181Z,68.40
2019-06-27T08:05:10.252Z,67.90
2019-06-27T08:07:40.038Z,68.40
2019-06-27T08:10:09.807Z,67.40
2019-06-27T08:12:42.314Z,67.30
2019-06-27T08:15:11.333Z,67.70
2019-06-27T08:17:41.018Z,67.40
2019-06-27T08:20:10.549Z,66.70
2019-06-27T08:22:39.804Z,68.30
2019-06-27T08:25:09.623Z,66.60
2019-06-27T08:27:39.250Z,66.50
2019-06-27T08:30:09.144Z,65.10
2019-06-27T08:32:38.697Z,64.30
2019-06-27T08:35:08.435Z,64.70
2019-06-27T08:37:39.028Z,64.30
2019-06-27T08:40:09.044Z,64.10
2019-06-27T08:42:38.337Z,64.60
2019-06-27T08:45:08.262Z,63.80
2019-06-27T08:47:37.793Z,64.00
2019-06-27T08:50:07.724Z,64.70
2019-06-27T08:52:37.276Z,63.40
2019-06-27T08:55:06.928Z,64.30
2019-06-27T08:57:37.511Z,64.40
2019-06-27T09:00:08.264Z,64.50
2019-06-27T09:02:37.535Z,63.70
2019-06-27T09:05:08.501Z,62.40
2019-06-27T09:07:37.805Z,61.10
2019-06-27T09:10:07.945Z,60.10
2019-06-27T09:12:37.259Z,61.00
2019-06-27T09:15:07.535Z,58.30
2019-06-27T09:17:36.818Z,58.70
2019-06-27T09:20:09.732Z,59.90
2019-06-27T09:22:39.162Z,60.20
2019-06-27T09:25:09.571Z,59.70
2019-06-27T09:27:39.156Z,59.80
2019-06-27T09:30:10.277Z,57.70
2019-06-27T09:32:39.823Z,57.70
2019-06-27T09:35:10.641Z,55.30
2019-06-27T09:37:39.990Z,56.20
2019-06-27T09:40:09.998Z,57.50
2019-06-27T09:42:39.572Z,57.70
2019-06-27T09:45:09.489Z,57.60
2019-06-27T09:47:39.160Z,58.20
2019-06-27T09:50:10.418Z,58.50
2019-06-27T09:52:39.779Z,58.90
2019-06-27T09:55:10.915Z,57.60
2019-06-27T09:57:40.237Z,57.60
2019-06-27T10:00:11.863Z,56.60
2019-06-27T10:02:42.903Z,56.00
2019-06-27T10:05:12.847Z,55.70
2019-06-27T10:07:42.366Z,54.00
2019-06-27T10:10:12.678Z,54.00
2019-06-27T10:12:43.377Z,53.70
2019-06-27T10:15:13.909Z,54.80
2019-06-27T10:17:43.423Z,55.20
2019-06-27T10:20:15.264Z,56.10
2019-06-27T10:22:44.560Z,54.20
2019-06-27T10:25:14.158Z,54.80
2019-06-27T10:27:43.430Z,53.50
2019-06-27T10:30:15.633Z,53.40
2019-06-27T10:32:58.429Z,51.20
2019-06-27T10:35:15.956Z,51.10
2019-06-27T10:37:45.224Z,51.20
2019-06-27T10:40:15.205Z,50.60
2019-06-27T10:42:44.473Z,52.10
2019-06-27T10:45:13.925Z,52.80
2019-06-27T10:47:43.532Z,53.30
2019-06-27T10:50:13.432Z,53.50
2019-06-27T10:52:42.737Z,53.40
2019-06-27T10:55:12.030Z,52.60
2019-06-27T10:57:41.638Z,52.20
2019-06-27T11:00:11.803Z,51.10
2019-06-27T11:02:41.079Z,51.40
2019-06-27T11:05:10.436Z,52.00
2019-06-27T11:07:40.978Z,51.80
2019-06-27T11:10:11.046Z,52.00
2019-06-27T11:12:40.632Z,50.30
2019-06-27T11:15:11.093Z,50.10
2019-06-27T11:17:40.663Z,51.00
2019-06-27T11:20:10.671Z,52.90
2019-06-27T11:22:39.938Z,53.10
2019-06-27T11:25:09.563Z,52.30
2019-06-27T11:27:38.836Z,51.30
2019-06-27T11:30:09.440Z,49.70
2019-06-27T11:32:39.020Z,49.50
2019-06-27T11:35:08.574Z,50.60
2019-06-27T11:37:37.904Z,50.40
2019-06-27T11:40:12.001Z,49.40
2019-06-27T11:42:39.976Z,48.60
2019-06-27T11:45:10.581Z,49.10
2019-06-27T11:47:40.142Z,49.30
2019-06-27T11:50:10.013Z,50.20
2019-06-27T11:52:39.443Z,48.50
2019-06-27T11:55:09.383Z,48.60
2019-06-27T11:57:38.996Z,49.20
2019-06-27T12:00:08.778Z,49.20
2019-06-27T12:02:38.429Z,50.00
2019-06-27T12:05:08.124Z,50.80
2019-06-27T12:07:37.759Z,50.30
2019-06-27T12:10:07.958Z,50.70
2019-06-27T12:12:37.586Z,50.70
2019-06-27T12:15:09.888Z,51.60
2019-06-27T12:17:39.211Z,51.40
2019-06-27T12:20:08.895Z,51.80
2019-06-27T12:22:38.177Z,51.00
2019-06-27T12:25:07.792Z,52.10
2019-06-27T12:27:37.054Z,50.60
2019-06-27T12:30:07.692Z,51.40
2019-06-27T12:32:51.200Z,52.30
2019-06-27T12:35:08.361Z,52.70
2019-06-27T12:37:39.916Z,53.90
2019-06-27T12:40:09.600Z,51.20
2019-06-27T12:42:38.906Z,51.80
2019-06-27T12:45:09.296Z,51.50
2019-06-27T12:47:38.847Z,49.80
2019-06-27T12:50:09.052Z,50.30
2019-06-27T12:52:38.569Z,48.30
2019-06-27T12:55:07.846Z,47.10
2019-06-27T12:57:37.375Z,49.00
2019-06-27T13:00:08.960Z,47.30
2019-06-27T13:02:38.742Z,48.00
2019-06-27T13:05:08.164Z,48.40
2019-06-27T13:07:37.669Z,48.60
2019-06-27T13:10:08.082Z,48.50
2019-06-27T13:12:37.370Z,48.10
2019-06-27T13:15:06.909Z,47.80
2019-06-27T13:17:36.264Z,48.20
2019-06-27T13:20:07.929Z,49.00
2019-06-27T13:22:38.534Z,48.20
2019-06-27T13:25:08.087Z,47.10
2019-06-27T13:27:37.358Z,47.10
2019-06-27T13:30:07.949Z,49.30
2019-06-27T13:32:37.552Z,48.40
2019-06-27T13:35:07.487Z,46.40
2019-06-27T13:37:36.779Z,46.00
2019-06-27T13:40:07.336Z,47.90
2019-06-27T13:42:38.358Z,48.40
2019-06-27T13:45:08.112Z,47.10
2019-06-27T13:47:37.381Z,47.80
2019-06-27T13:50:06.989Z,46.30
2019-06-27T13:52:36.295Z,47.50
2019-06-27T13:55:05.798Z,46.30
2019-06-27T13:57:35.125Z,45.90
2019-06-27T14:00:07.508Z,46.50
2019-06-27T14:02:37.246Z,44.10
2019-06-27T14:05:07.233Z,44.90
2019-06-27T14:07:36.528Z,45.50
2019-06-27T14:10:08.732Z,45.70
2019-06-27T14:12:38.096Z,46.40
2019-06-27T14:15:09.468Z,46.30
2019-06-27T14:17:38.741Z,47.10
2019-06-27T14:20:09.108Z,46.60
2019-06-27T14:22:38.385Z,46.70
2019-06-27T14:25:08.037Z,47.70
2019-06-27T14:27:37.322Z,49.80
2019-06-27T14:30:07.941Z,49.40
2019-06-27T14:32:37.535Z,49.00
2019-06-27T14:35:15.449Z,47.60
2019-06-27T14:37:38.133Z,47.90
2019-06-27T14:40:10.983Z,47.40
2019-06-27T14:42:40.570Z,47.50
2019-06-27T14:45:10.001Z,46.50
2019-06-27T14:47:39.616Z,48.10
2019-06-27T14:50:10.213Z,48.20
2019-06-27T14:52:40.525Z,47.80
2019-06-27T14:55:10.081Z,48.90
2019-06-27T14:57:39.646Z,49.10
2019-06-27T15:00:09.664Z,49.20
2019-06-27T15:02:39.274Z,48.80
2019-06-27T15:05:09.100Z,49.40
2019-06-27T15:07:38.701Z,48.40
2019-06-27T15:10:09.536Z,49.00
2019-06-27T15:12:52.540Z,48.00
2019-06-27T15:15:10.067Z,48.00
2019-06-27T15:17:39.712Z,47.80
2019-06-27T15:20:09.655Z,48.30
2019-06-27T15:22:38.944Z,49.10
2019-06-27T15:25:08.975Z,51.10
2019-06-27T15:27:39.213Z,52.00
2019-06-27T15:30:09.043Z,51.70
2019-06-27T15:32:38.509Z,51.40
2019-06-27T15:35:08.314Z,51.60
2019-06-27T15:37:37.582Z,51.40
2019-06-27T15:40:07.537Z,52.50
2019-06-27T15:42:37.943Z,52.00
2019-06-27T15:45:10.339Z,51.30
2019-06-27T15:47:39.605Z,52.70
2019-06-27T15:50:09.933Z,53.10
2019-06-27T15:52:39.220Z,53.40
2019-06-27T15:55:12.224Z,53.20
2019-06-27T15:57:41.153Z,54.70
2019-06-27T16:00:11.394Z,55.00
2019-06-27T16:02:40.662Z,55.00
2019-06-27T16:05:10.414Z,54.30
2019-06-27T16:07:39.829Z,54.70
2019-06-27T16:10:09.717Z,55.60
2019-06-27T16:12:39.380Z,54.60
2019-06-27T16:15:09.680Z,55.10
2019-06-27T16:17:39.907Z,55.00
2019-06-27T16:20:09.876Z,54.50
2019-06-27T16:22:39.138Z,54.30
2019-06-27T16:25:08.660Z,54.50
2019-06-27T16:27:38.009Z,54.70
2019-06-27T16:30:08.041Z,55.10
2019-06-27T16:32:37.313Z,55.20
2019-06-27T16:35:07.643Z,55.60
2019-06-27T16:37:36.903Z,56.30
2019-06-27T16:40:07.762Z,56.30
2019-06-27T16:42:37.205Z,57.10
2019-06-27T16:45:09.811Z,57.00
2019-06-27T16:47:39.086Z,57.20
2019-06-27T16:50:09.144Z,57.30
2019-06-27T16:52:38.436Z,57.40
2019-06-27T16:55:07.957Z,56.10
2019-06-27T16:57:37.246Z,56.70
2019-06-27T17:00:08.052Z,56.40
2019-06-27T17:02:37.317Z,56.50
2019-06-27T17:05:07.019Z,56.50
2019-06-27T17:07:36.347Z,57.30
2019-06-27T17:10:07.556Z,58.20
2019-06-27T17:12:37.062Z,56.70
2019-06-27T17:15:09.887Z,57.50
2019-06-27T17:17:39.399Z,56.70
2019-06-27T17:20:10.823Z,57.30
2019-06-27T17:22:40.469Z,57.00
2019-06-27T17:25:10.104Z,56.70
2019-06-27T17:27:39.439Z,58.10
2019-06-27T17:30:12.915Z,58.60
2019-06-27T17:32:42.200Z,57.90
2019-06-27T17:35:11.966Z,57.40
2019-06-27T17:37:42.216Z,57.60
2019-06-27T17:40:12.043Z,57.10
2019-06-27T17:42:41.335Z,57.60
2019-06-27T17:45:10.759Z,57.20
2019-06-27T17:47:40.130Z,56.00
2019-06-27T17:50:09.970Z,56.10
2019-06-27T17:52:39.260Z,56.90
2019-06-27T17:55:08.600Z,57.30
2019-06-27T17:57:37.895Z,57.00
2019-06-27T18:00:07.643Z,57.70
2019-06-27T18:02:37.087Z,58.10
2019-06-27T18:05:07.048Z,58.40
2019-06-27T18:07:36.608Z,58.10
2019-06-27T18:10:06.105Z,57.80
2019-06-27T18:12:35.385Z,58.60
2019-06-27T18:15:07.372Z,58.60
2019-06-27T18:17:36.679Z,59.20
2019-06-27T18:20:08.728Z,59.70
2019-06-27T18:22:38.351Z,60.10
2019-06-27T18:25:08.421Z,60.50
2019-06-27T18:27:37.942Z,60.50
2019-06-27T18:30:07.667Z,60.80
2019-06-27T18:32:36.947Z,60.80
2019-06-27T18:35:07.177Z,60.50
2019-06-27T18:37:36.464Z,60.50
2019-06-27T18:40:06.791Z,60.70
2019-06-27T18:42:36.091Z,60.20
2019-06-27T18:45:09.816Z,60.50
2019-06-27T18:47:39.103Z,60.90
2019-06-27T18:50:08.628Z,60.60
2019-06-27T18:52:37.947Z,60.90
2019-06-27T18:55:07.429Z,61.00
2019-06-27T18:57:37.777Z,60.80
2019-06-27T19:00:08.351Z,60.70
2019-06-27T19:02:38.032Z,61.10
2019-06-27T19:05:08.236Z,61.40
2019-06-27T19:07:45.506Z,61.90
2019-06-27T19:10:09.075Z,62.00
2019-06-27T19:12:39.341Z,62.40
2019-06-27T19:15:10.615Z,62.60
2019-06-27T19:17:39.926Z,62.50
2019-06-27T19:20:23.170Z,62.70
2019-06-27T19:23:00.391Z,63.00
2019-06-27T19:25:34.416Z,63.00
2019-06-27T19:28:04.053Z,63.30
2019-06-27T19:30:33.644Z,63.60
2019-06-27T19:33:02.951Z,63.80
2019-06-27T19:35:32.519Z,64.40
2019-06-27T19:38:03.058Z,64.30
2019-06-27T19:40:32.543Z,65.00
2019-06-27T19:43:02.165Z,65.30
2019-06-27T19:45:31.425Z,65.60
2019-06-27T19:48:00.735Z,65.80
2019-06-27T19:50:30.029Z,65.70
2019-06-27T19:52:59.306Z,66.00
2019-06-27T19:55:28.594Z,66.40
2019-06-27T19:57:57.877Z,66.80
2019-06-27T20:00:27.694Z,66.90
2019-06-27T20:02:56.972Z,67.50
2019-06-27T20:05:26.279Z,68.00
2019-06-27T20:07:55.542Z,68.40
2019-06-27T20:10:24.837Z,68.80
2019-06-27T20:12:54.119Z,69.40
2019-06-27T20:15:23.796Z,69.90
2019-06-27T20:17:53.080Z,70.40
2019-06-27T20:20:22.439Z,70.50
2019-06-27T20:22:51.705Z,70.70
2019-06-27T20:25:21.024Z,70.70
2019-06-27T20:27:50.304Z,71.10
2019-06-27T20:30:20.737Z,71.20
2019-06-27T20:32:50.245Z,71.40
2019-06-27T20:35:19.519Z,71.60
2019-06-27T20:37:49.070Z,72.10
2019-06-27T20:40:19.235Z,72.40
2019-06-27T20:42:48.592Z,72.60
2019-06-27T20:45:18.470Z,72.80
2019-06-27T20:47:49.360Z,72.90
2019-06-27T20:50:19.247Z,73.20
2019-06-27T20:52:48.662Z,73.50
2019-06-27T20:55:17.957Z,73.70
2019-06-27T20:57:47.235Z,73.80
2019-06-27T21:00:17.305Z,74.00
2019-06-27T21:02:46.817Z,74.20
2019-06-27T21:05:16.179Z,74.50
2019-06-27T21:07:45.697Z,74.80
2019-06-27T21:10:15.096Z,74.90
2019-06-27T21:12:45.359Z,75.00
2019-06-27T21:15:15.290Z,75.30
2019-06-27T21:17:44.740Z,75.60
2019-06-27T21:20:14.455Z,75.70
2019-06-27T21:22:45.989Z,76.20
2019-06-27T21:25:15.176Z,76.30
2019-06-27T21:27:44.441Z,76.60
2019-06-27T21:30:15.211Z,77.00
2019-06-27T21:32:48.059Z,77.30
2019-06-27T21:35:15.463Z,77.50
2019-06-27T21:37:45.056Z,77.80
2019-06-27T21:40:14.786Z,77.90
2019-06-27T21:42:44.289Z,78.30
2019-06-27T21:45:14.185Z,78.50
2019-06-27T21:47:43.440Z,78.50
2019-06-27T21:50:13.408Z,78.80
2019-06-27T21:52:42.673Z,78.90
2019-06-27T21:55:13.148Z,79.40
2019-06-27T21:57:42.663Z,79.50
2019-06-27T22:00:12.646Z,79.80
2019-06-27T22:02:43.547Z,79.90
2019-06-27T22:05:13.451Z,80.00
2019-06-27T22:07:42.732Z,80.30
2019-06-27T22:10:12.530Z,80.50
2019-06-27T22:12:41.816Z,80.80
2019-06-27T22:15:11.781Z,80.80
2019-06-27T22:17:41.054Z,80.70
2019-06-27T22:20:15.675Z,80.70
2019-06-27T22:22:41.931Z,80.80
2019-06-27T22:25:11.604Z,80.70
2019-06-27T22:27:41.168Z,80.70
2019-06-27T22:30:11.970Z,81.00
2019-06-27T22:32:41.561Z,81.00
2019-06-27T22:35:11.278Z,80.90
2019-06-27T22:37:58.349Z,81.00
2019-06-27T22:40:45.593Z,81.20
2019-06-27T22:43:33.041Z,81.60
2019-06-27T22:46:20.663Z,81.70
2019-06-27T22:48:49.264Z,81.90
2019-06-27T22:51:28.897Z,82.10
2019-06-27T22:53:59.827Z,82.20
2019-06-27T22:56:29.499Z,82.20
2019-06-27T22:58:59.791Z,82.10
2019-06-27T23:01:29.422Z,82.20
2019-06-27T23:03:58.971Z,82.10
2019-06-27T23:06:28.319Z,82.10
2019-06-27T23:08:57.594Z,82.10
2019-06-27T23:11:26.869Z,82.40
2019-06-27T23:13:56.157Z,82.40
2019-06-27T23:16:25.439Z,82.90
2019-06-27T23:18:54.756Z,83.00
2019-06-27T23:21:24.327Z,83.20
2019-06-27T23:23:53.909Z,83.30
2019-06-27T23:26:24.543Z,83.30
2019-06-27T23:28:54.603Z,83.30
2019-06-27T23:31:23.888Z,83.30
2019-06-27T23:33:53.169Z,83.50
2019-06-27T23:36:22.779Z,83.60
2019-06-27T23:38:52.049Z,83.90
2019-06-27T23:41:21.394Z,84.20
2019-06-27T23:43:50.700Z,84.40
2019-06-27T23:46:37.938Z,84.70
2019-06-27T23:49:07.451Z,84.90
2019-06-27T23:51:36.716Z,85.20
2019-06-27T23:54:06.350Z,85.30
2019-06-27T23:56:37.560Z,85.30
2019-06-27T23:59:06.895Z,85.70
